sensor_id;sensor_type;location;lat;lon;timestamp;temperature;humidity
44627;DHT22;30333;52.192;8.834;2023-01-29T00:33:56;1.70;99.90
44627;DHT22;30333;52.192;8.834;2023-01-29T00:38:58;1.80;99.90
44627;DHT22;30333;52.192;8.834;2023-01-29T00:41:29;1.90;99.90
44627;DHT22;30333;52.192;8.834;2023-01-29T00:57:02;1.90;99.90
44627;DHT22;30333;52.192;8.834;2023-01-29T01:01:54;1.90;99.90
44627;DHT22;30333;52.192;8.834;2023-01-29T01:39:02;1.90;99.90
44627;DHT22;30333;52.192;8.834;2023-01-29T01:43:59;1.90;99.90
44627;DHT22;30333;52.192;8.834;2023-01-29T01:46:32;1.90;99.90
44627;DHT22;30333;52.192;8.834;2023-01-29T01:49:04;1.80;99.90
44627;DHT22;30333;52.192;8.834;2023-01-29T01:51:34;1.70;99.90
44627;DHT22;30333;52.192;8.834;2023-01-29T01:54:15;1.60;99.90
44627;DHT22;30333;52.192;8.834;2023-01-29T01:56:46;1.60;99.90
44627;DHT22;30333;52.192;8.834;2023-01-29T01:59:16;1.70;99.90
44627;DHT22;30333;52.192;8.834;2023-01-29T02:01:44;1.80;99.90
44627;DHT22;30333;52.192;8.834;2023-01-29T02:04:16;1.90;99.90
44627;DHT22;30333;52.192;8.834;2023-01-29T02:07:03;1.90;99.90
44627;DHT22;30333;52.192;8.834;2023-01-29T02:09:59;1.80;99.90
44627;DHT22;30333;52.192;8.834;2023-01-29T02:20:25;2.00;99.90
44627;DHT22;30333;52.192;8.834;2023-01-29T02:31:40;1.90;99.90
44627;DHT22;30333;52.192;8.834;2023-01-29T02:34:49;2.00;99.90
44627;DHT22;30333;52.192;8.834;2023-01-29T02:37:35;1.90;99.90
44627;DHT22;30333;52.192;8.834;2023-01-29T02:40:23;1.80;99.90
44627;DHT22;30333;52.192;8.834;2023-01-29T02:43:21;1.80;99.90
44627;DHT22;30333;52.192;8.834;2023-01-29T02:48:23;1.90;99.90
44627;DHT22;30333;52.192;8.834;2023-01-29T02:51:12;1.50;99.90
44627;DHT22;30333;52.192;8.834;2023-01-29T02:53:45;1.80;99.90
44627;DHT22;30333;52.192;8.834;2023-01-29T02:56:21;1.90;99.90
44627;DHT22;30333;52.192;8.834;2023-01-29T02:58:56;2.00;99.90
44627;DHT22;30333;52.192;8.834;2023-01-29T03:01:32;1.50;99.90
44627;DHT22;30333;52.192;8.834;2023-01-29T03:04:10;2.10;99.90
44627;DHT22;30333;52.192;8.834;2023-01-29T03:06:41;2.10;99.90
44627;DHT22;30333;52.192;8.834;2023-01-29T03:09:20;2.00;99.90
44627;DHT22;30333;52.192;8.834;2023-01-29T03:11:52;2.00;99.90
44627;DHT22;30333;52.192;8.834;2023-01-29T03:14:28;1.80;99.90
44627;DHT22;30333;52.192;8.834;2023-01-29T03:19:44;1.70;99.90
44627;DHT22;30333;52.192;8.834;2023-01-29T03:22:12;1.70;99.90
44627;DHT22;30333;52.192;8.834;2023-01-29T03:24:53;-2.70;99.90
44627;DHT22;30333;52.192;8.834;2023-01-29T03:27:59;1.80;99.90
44627;DHT22;30333;52.192;8.834;2023-01-29T03:30:49;1.90;99.90
44627;DHT22;30333;52.192;8.834;2023-01-29T03:33:49;1.90;99.90
44627;DHT22;30333;52.192;8.834;2023-01-29T03:36:22;2.00;99.90
44627;DHT22;30333;52.192;8.834;2023-01-29T03:46:34;1.90;99.90
44627;DHT22;30333;52.192;8.834;2023-01-29T03:49:12;2.00;99.90
44627;DHT22;30333;52.192;8.834;2023-01-29T03:54:38;2.00;99.90
44627;DHT22;30333;52.192;8.834;2023-01-29T03:59:52;1.90;99.90
44627;DHT22;30333;52.192;8.834;2023-01-29T04:02:22;2.00;99.90
44627;DHT22;30333;52.192;8.834;2023-01-29T04:04:58;1.90;99.90
44627;DHT22;30333;52.192;8.834;2023-01-29T04:09:54;2.00;99.90
44627;DHT22;30333;52.192;8.834;2023-01-29T04:12:35;2.10;99.90
44627;DHT22;30333;52.192;8.834;2023-01-29T04:15:04;2.10;99.90
44627;DHT22;30333;52.192;8.834;2023-01-29T04:17:36;2.10;99.90
44627;DHT22;30333;52.192;8.834;2023-01-29T04:20:03;2.00;99.90
44627;DHT22;30333;52.192;8.834;2023-01-29T04:22:34;2.00;99.90
44627;DHT22;30333;52.192;8.834;2023-01-29T04:25:04;1.90;99.90
44627;DHT22;30333;52.192;8.834;2023-01-29T04:35:28;2.00;99.90
44627;DHT22;30333;52.192;8.834;2023-01-29T04:40:52;1.90;99.90
44627;DHT22;30333;52.192;8.834;2023-01-29T04:43:41;1.90;99.90
44627;DHT22;30333;52.192;8.834;2023-01-29T04:46:13;1.90;99.90
44627;DHT22;30333;52.192;8.834;2023-01-29T04:49:00;1.70;99.90
44627;DHT22;30333;52.192;8.834;2023-01-29T04:51:57;1.80;99.90
44627;DHT22;30333;52.192;8.834;2023-01-29T04:57:19;1.70;99.90
44627;DHT22;30333;52.192;8.834;2023-01-29T04:59:52;1.50;99.90
44627;DHT22;30333;52.192;8.834;2023-01-29T05:02:22;1.60;99.90
44627;DHT22;30333;52.192;8.834;2023-01-29T05:07:16;1.70;99.90
44627;DHT22;30333;52.192;8.834;2023-01-29T05:09:44;1.80;99.90
44627;DHT22;30333;52.192;8.834;2023-01-29T05:12:12;1.80;99.90
44627;DHT22;30333;52.192;8.834;2023-01-29T05:14:40;2.80;99.90
44627;DHT22;30333;52.192;8.834;2023-01-29T05:17:12;1.90;99.90
44627;DHT22;30333;52.192;8.834;2023-01-29T05:22:05;1.90;99.90
44627;DHT22;30333;52.192;8.834;2023-01-29T05:24:35;2.00;99.90
44627;DHT22;30333;52.192;8.834;2023-01-29T05:29:46;2.00;99.90
44627;DHT22;30333;52.192;8.834;2023-01-29T05:46:49;2.10;99.90
44627;DHT22;30333;52.192;8.834;2023-01-29T05:49:16;2.00;99.90
44627;DHT22;30333;52.192;8.834;2023-01-29T05:54:10;2.00;99.90
44627;DHT22;30333;52.192;8.834;2023-01-29T06:06:20;2.20;99.90
44627;DHT22;30333;52.192;8.834;2023-01-29T06:08:46;2.00;99.90
44627;DHT22;30333;52.192;8.834;2023-01-29T06:11:13;2.20;99.90
44627;DHT22;30333;52.192;8.834;2023-01-29T06:16:05;2.20;99.90
44627;DHT22;30333;52.192;8.834;2023-01-29T06:21:01;2.10;99.90
44627;DHT22;30333;52.192;8.834;2023-01-29T06:55:04;2.10;99.90
44627;DHT22;30333;52.192;8.834;2023-01-29T07:09:40;1.90;99.90
44627;DHT22;30333;52.192;8.834;2023-01-29T07:48:37;2.00;99.90
44627;DHT22;30333;52.192;8.834;2023-01-29T07:55:55;2.00;99.90
44627;DHT22;30333;52.192;8.834;2023-01-29T08:03:15;2.10;99.90
44627;DHT22;30333;52.192;8.834;2023-01-29T08:05:42;2.10;99.90
44627;DHT22;30333;52.192;8.834;2023-01-29T08:10:35;2.10;99.90
44627;DHT22;30333;52.192;8.834;2023-01-29T08:13:01;2.20;99.90
44627;DHT22;30333;52.192;8.834;2023-01-29T08:15:27;2.20;99.90
44627;DHT22;30333;52.192;8.834;2023-01-29T08:20:20;2.20;99.90
44627;DHT22;30333;52.192;8.834;2023-01-29T08:25:13;2.20;99.90
44627;DHT22;30333;52.192;8.834;2023-01-29T08:30:05;2.30;99.90
44627;DHT22;30333;52.192;8.834;2023-01-29T08:49:32;2.50;99.90
44627;DHT22;30333;52.192;8.834;2023-01-29T08:51:57;2.60;99.90
44627;DHT22;30333;52.192;8.834;2023-01-29T09:01:41;2.70;99.90
44627;DHT22;30333;52.192;8.834;2023-01-29T09:06:33;2.70;99.90
44627;DHT22;30333;52.192;8.834;2023-01-29T09:16:16;2.80;99.90
44627;DHT22;30333;52.192;8.834;2023-01-29T09:18:42;2.60;99.90
44627;DHT22;30333;52.192;8.834;2023-01-29T09:21:08;2.70;99.90
44627;DHT22;30333;52.192;8.834;2023-01-29T09:35:44;3.00;99.90
44627;DHT22;30333;52.192;8.834;2023-01-29T09:38:13;3.10;99.90
44627;DHT22;30333;52.192;8.834;2023-01-29T09:40:54;3.00;99.90
44627;DHT22;30333;52.192;8.834;2023-01-29T09:45:55;3.30;99.90
44627;DHT22;30333;52.192;8.834;2023-01-29T09:48:26;3.30;99.90
44627;DHT22;30333;52.192;8.834;2023-01-29T09:50:55;3.40;99.90
44627;DHT22;30333;52.192;8.834;2023-01-29T09:53:45;3.30;99.90
44627;DHT22;30333;52.192;8.834;2023-01-29T09:56:15;3.30;99.90
44627;DHT22;30333;52.192;8.834;2023-01-29T10:01:35;3.40;99.90
44627;DHT22;30333;52.192;8.834;2023-01-29T10:06:52;3.50;99.90
44627;DHT22;30333;52.192;8.834;2023-01-29T10:10:01;3.50;99.90
44627;DHT22;30333;52.192;8.834;2023-01-29T10:20:42;3.40;99.90
44627;DHT22;30333;52.192;8.834;2023-01-29T10:23:18;3.40;99.90
44627;DHT22;30333;52.192;8.834;2023-01-29T10:25:46;3.40;99.90
44627;DHT22;30333;52.192;8.834;2023-01-29T10:31:10;3.70;99.90
44627;DHT22;30333;52.192;8.834;2023-01-29T10:33:42;3.70;99.90
44627;DHT22;30333;52.192;8.834;2023-01-29T10:36:21;3.80;99.90
44627;DHT22;30333;52.192;8.834;2023-01-29T10:38:49;3.80;99.90
44627;DHT22;30333;52.192;8.834;2023-01-29T10:41:38;3.70;99.90
44627;DHT22;30333;52.192;8.834;2023-01-29T10:47:17;3.60;99.90
44627;DHT22;30333;52.192;8.834;2023-01-29T10:52:38;3.60;99.90
44627;DHT22;30333;52.192;8.834;2023-01-29T11:00:30;3.60;99.90
44627;DHT22;30333;52.192;8.834;2023-01-29T11:03:12;3.50;99.90
44627;DHT22;30333;52.192;8.834;2023-01-29T11:06:01;3.40;99.90
44627;DHT22;30333;52.192;8.834;2023-01-29T11:08:42;3.50;99.90
44627;DHT22;30333;52.192;8.834;2023-01-29T11:11:21;3.50;99.90
44627;DHT22;30333;52.192;8.834;2023-01-29T11:13:54;3.60;99.90
44627;DHT22;30333;52.192;8.834;2023-01-29T11:16:22;3.60;99.90
44627;DHT22;30333;52.192;8.834;2023-01-29T11:18:59;3.60;99.90
44627;DHT22;30333;52.192;8.834;2023-01-29T11:21:26;3.50;99.90
44627;DHT22;30333;52.192;8.834;2023-01-29T11:24:14;3.40;99.90
44627;DHT22;30333;52.192;8.834;2023-01-29T11:26:43;3.30;99.90
44627;DHT22;30333;52.192;8.834;2023-01-29T11:29:29;3.40;99.90
44627;DHT22;30333;52.192;8.834;2023-01-29T11:31:57;3.40;99.90
44627;DHT22;30333;52.192;8.834;2023-01-29T11:34:25;3.50;99.90
44627;DHT22;30333;52.192;8.834;2023-01-29T11:37:03;3.60;99.90
44627;DHT22;30333;52.192;8.834;2023-01-29T11:39:30;3.60;99.90
44627;DHT22;30333;52.192;8.834;2023-01-29T11:42:02;3.70;99.90
44627;DHT22;30333;52.192;8.834;2023-01-29T11:49:40;3.70;99.90
44627;DHT22;30333;52.192;8.834;2023-01-29T11:52:09;3.70;99.90
44627;DHT22;30333;52.192;8.834;2023-01-29T11:54:38;3.80;99.90
44627;DHT22;30333;52.192;8.834;2023-01-29T11:57:33;3.60;99.90
44627;DHT22;30333;52.192;8.834;2023-01-29T12:00:23;3.80;99.90
44627;DHT22;30333;52.192;8.834;2023-01-29T12:02:53;3.80;99.90
44627;DHT22;30333;52.192;8.834;2023-01-29T12:05:22;3.80;99.90
44627;DHT22;30333;52.192;8.834;2023-01-29T12:07:53;3.10;99.90
44627;DHT22;30333;52.192;8.834;2023-01-29T12:10:30;3.80;99.90
44627;DHT22;30333;52.192;8.834;2023-01-29T12:15:41;3.80;99.90
44627;DHT22;30333;52.192;8.834;2023-01-29T12:18:34;3.50;99.90
44627;DHT22;30333;52.192;8.834;2023-01-29T12:21:02;3.80;99.90
44627;DHT22;30333;52.192;8.834;2023-01-29T12:26:50;3.80;99.90
44627;DHT22;30333;52.192;8.834;2023-01-29T12:37:47;4.00;99.90
44627;DHT22;30333;52.192;8.834;2023-01-29T12:40:16;4.00;99.90
44627;DHT22;30333;52.192;8.834;2023-01-29T12:42:46;3.80;99.90
44627;DHT22;30333;52.192;8.834;2023-01-29T12:45:18;3.80;99.90
44627;DHT22;30333;52.192;8.834;2023-01-29T12:47:56;3.90;99.90
44627;DHT22;30333;52.192;8.834;2023-01-29T12:50:26;4.00;99.90
44627;DHT22;30333;52.192;8.834;2023-01-29T12:53:12;3.90;99.90
44627;DHT22;30333;52.192;8.834;2023-01-29T12:55:46;3.90;99.90
44627;DHT22;30333;52.192;8.834;2023-01-29T12:58:14;3.90;99.90
44627;DHT22;30333;52.192;8.834;2023-01-29T13:00:43;3.90;99.90
44627;DHT22;30333;52.192;8.834;2023-01-29T13:03:26;3.90;99.90
44627;DHT22;30333;52.192;8.834;2023-01-29T13:05:59;3.80;99.90
44627;DHT22;30333;52.192;8.834;2023-01-29T13:08:29;3.90;99.90
44627;DHT22;30333;52.192;8.834;2023-01-29T13:10:59;4.00;99.90
44627;DHT22;30333;52.192;8.834;2023-01-29T13:13:29;3.90;99.90
44627;DHT22;30333;52.192;8.834;2023-01-29T13:15:56;3.90;99.90
44627;DHT22;30333;52.192;8.834;2023-01-29T13:18:40;4.00;99.90
44627;DHT22;30333;52.192;8.834;2023-01-29T13:21:14;4.00;99.90
44627;DHT22;30333;52.192;8.834;2023-01-29T13:23:51;4.00;99.90
44627;DHT22;30333;52.192;8.834;2023-01-29T13:26:19;4.00;99.90
44627;DHT22;30333;52.192;8.834;2023-01-29T13:31:27;4.10;99.90
44627;DHT22;30333;52.192;8.834;2023-01-29T13:37:08;4.00;99.90
44627;DHT22;30333;52.192;8.834;2023-01-29T13:39:44;3.90;99.90
44627;DHT22;30333;52.192;8.834;2023-01-29T13:42:22;4.10;99.90
44627;DHT22;30333;52.192;8.834;2023-01-29T13:44:51;4.20;99.90
44627;DHT22;30333;52.192;8.834;2023-01-29T13:47:28;4.30;99.90
44627;DHT22;30333;52.192;8.834;2023-01-29T13:52:45;4.40;99.90
